Terminal Aerodrome Forecast
Issued by NWS

Home | Current Version | Previous Version | Text Only | Print | Product List | Glossary On
Versions: 1 2 3 4 5 6 7 8 9 10 11 12 13 14 15 16 17 18 19 20 21 22
000
FTUS43 KLSX 291300 AAB
TAFCPS
TAF AMD
KCPS 291310Z 2913/3012 VRB04KT 4SM BR SCT250
     FM291400 18007KT P6SM SCT035 BKN120
     FM292100 17009KT P6SM VCTS SCT040CB BKN120
     FM300300 19006KT P6SM SCT040 BKN100 PROB30 3003/3007 5SM -TSRA
      BKN030CB
     FM300700 21005KT P6SM VCSH BKN080=

USA.gov is the U.S. government's official web portal to all federal, state and local government web resources and services.